sensor_id;sensor_type;location;lat;lon;timestamp;P1;durP1;ratioP1;P2;durP2;ratioP2
55053;SDS011;40954;45.668;18.980;2023-02-28T00:01:10;58.08;;;27.33;;
55053;SDS011;40954;45.668;18.980;2023-02-28T00:03:36;31.33;;;17.42;;
55053;SDS011;40954;45.668;18.980;2023-02-28T00:06:03;20.00;;;14.00;;
55053;SDS011;40954;45.668;18.980;2023-02-28T00:08:29;18.42;;;13.75;;
55053;SDS011;40954;45.668;18.980;2023-02-28T00:10:56;22.20;;;15.00;;
55053;SDS011;40954;45.668;18.980;2023-02-28T00:13:22;21.30;;;15.27;;
55053;SDS011;40954;45.668;18.980;2023-02-28T00:15:52;16.67;;;13.13;;
55053;SDS011;40954;45.668;18.980;2023-02-28T00:18:23;19.25;;;14.45;;
55053;SDS011;40954;45.668;18.980;2023-02-28T00:20:49;16.38;;;13.35;;
55053;SDS011;40954;45.668;18.980;2023-02-28T00:23:15;19.10;;;12.88;;
55053;SDS011;40954;45.668;18.980;2023-02-28T00:25:41;16.60;;;12.93;;
55053;SDS011;40954;45.668;18.980;2023-02-28T00:28:07;14.93;;;11.80;;
55053;SDS011;40954;45.668;18.980;2023-02-28T00:30:33;17.83;;;12.65;;
55053;SDS011;40954;45.668;18.980;2023-02-28T00:32:59;16.73;;;12.18;;
55053;SDS011;40954;45.668;18.980;2023-02-28T00:35:25;16.77;;;12.32;;
55053;SDS011;40954;45.668;18.980;2023-02-28T00:37:51;16.33;;;11.98;;
55053;SDS011;40954;45.668;18.980;2023-02-28T00:40:17;15.43;;;11.40;;
55053;SDS011;40954;45.668;18.980;2023-02-28T00:42:43;19.48;;;13.00;;
55053;SDS011;40954;45.668;18.980;2023-02-28T00:45:09;18.52;;;11.73;;
55053;SDS011;40954;45.668;18.980;2023-02-28T00:47:35;13.45;;;11.45;;
55053;SDS011;40954;45.668;18.980;2023-02-28T00:50:02;16.70;;;12.55;;
55053;SDS011;40954;45.668;18.980;2023-02-28T00:52:29;18.00;;;12.88;;
55053;SDS011;40954;45.668;18.980;2023-02-28T00:54:55;18.77;;;14.18;;
55053;SDS011;40954;45.668;18.980;2023-02-28T00:57:21;17.70;;;13.65;;
55053;SDS011;40954;45.668;18.980;2023-02-28T00:59:47;23.48;;;14.32;;
55053;SDS011;40954;45.668;18.980;2023-02-28T01:02:13;15.77;;;12.98;;
55053;SDS011;40954;45.668;18.980;2023-02-28T01:04:39;18.92;;;12.98;;
55053;SDS011;40954;45.668;18.980;2023-02-28T01:07:05;18.17;;;13.57;;
55053;SDS011;40954;45.668;18.980;2023-02-28T01:09:31;18.23;;;12.68;;
55053;SDS011;40954;45.668;18.980;2023-02-28T01:11:57;20.50;;;13.10;;
55053;SDS011;40954;45.668;18.980;2023-02-28T01:14:23;18.70;;;13.82;;
55053;SDS011;40954;45.668;18.980;2023-02-28T01:16:49;18.08;;;13.75;;
55053;SDS011;40954;45.668;18.980;2023-02-28T01:19:16;20.45;;;14.20;;
55053;SDS011;40954;45.668;18.980;2023-02-28T01:21:42;17.17;;;13.55;;
55053;SDS011;40954;45.668;18.980;2023-02-28T01:24:08;19.23;;;14.43;;
55053;SDS011;40954;45.668;18.980;2023-02-28T01:26:34;18.25;;;13.77;;
55053;SDS011;40954;45.668;18.980;2023-02-28T01:29:00;19.88;;;15.35;;
55053;SDS011;40954;45.668;18.980;2023-02-28T01:31:26;17.70;;;14.43;;
55053;SDS011;40954;45.668;18.980;2023-02-28T01:33:52;21.50;;;14.15;;
55053;SDS011;40954;45.668;18.980;2023-02-28T01:36:19;18.98;;;14.85;;
55053;SDS011;40954;45.668;18.980;2023-02-28T01:38:46;19.67;;;13.77;;
55053;SDS011;40954;45.668;18.980;2023-02-28T01:41:19;19.20;;;14.15;;
55053;SDS011;40954;45.668;18.980;2023-02-28T01:46:12;19.20;;;15.68;;
55053;SDS011;40954;45.668;18.980;2023-02-28T01:48:40;23.70;;;14.40;;
55053;SDS011;40954;45.668;18.980;2023-02-28T01:51:08;21.58;;;14.13;;
55053;SDS011;40954;45.668;18.980;2023-02-28T01:53:41;26.50;;;16.08;;
55053;SDS011;40954;45.668;18.980;2023-02-28T01:56:09;21.85;;;15.40;;
55053;SDS011;40954;45.668;18.980;2023-02-28T01:58:36;28.92;;;16.63;;
55053;SDS011;40954;45.668;18.980;2023-02-28T02:01:02;29.23;;;16.88;;
55053;SDS011;40954;45.668;18.980;2023-02-28T02:03:29;25.42;;;15.05;;
55053;SDS011;40954;45.668;18.980;2023-02-28T02:05:55;24.25;;;15.63;;
55053;SDS011;40954;45.668;18.980;2023-02-28T02:08:25;19.83;;;14.02;;
55053;SDS011;40954;45.668;18.980;2023-02-28T02:10:52;19.48;;;13.27;;
55053;SDS011;40954;45.668;18.980;2023-02-28T02:13:38;22.05;;;14.05;;
55053;SDS011;40954;45.668;18.980;2023-02-28T02:18:43;15.10;;;11.65;;
55053;SDS011;40954;45.668;18.980;2023-02-28T02:24:14;17.60;;;12.90;;
55053;SDS011;40954;45.668;18.980;2023-02-28T02:31:55;17.23;;;12.48;;
55053;SDS011;40954;45.668;18.980;2023-02-28T02:37:15;18.63;;;12.23;;
55053;SDS011;40954;45.668;18.980;2023-02-28T02:42:27;17.50;;;12.38;;
55053;SDS011;40954;45.668;18.980;2023-02-28T02:45:01;17.98;;;12.93;;
55053;SDS011;40954;45.668;18.980;2023-02-28T02:47:29;19.05;;;11.93;;
55053;SDS011;40954;45.668;18.980;2023-02-28T02:49:57;14.85;;;11.73;;
55053;SDS011;40954;45.668;18.980;2023-02-28T02:52:30;16.83;;;12.93;;
55053;SDS011;40954;45.668;18.980;2023-02-28T02:54:57;13.50;;;9.50;;
55053;SDS011;40954;45.668;18.980;2023-02-28T02:57:40;13.77;;;11.88;;
55053;SDS011;40954;45.668;18.980;2023-02-28T03:00:09;14.73;;;11.38;;
55053;SDS011;40954;45.668;18.980;2023-02-28T03:02:36;15.32;;;12.65;;
55053;SDS011;40954;45.668;18.980;2023-02-28T03:05:47;12.80;;;10.38;;
55053;SDS011;40954;45.668;18.980;2023-02-28T03:07:53;14.70;;;11.05;;
55053;SDS011;40954;45.668;18.980;2023-02-28T03:10:29;14.63;;;11.70;;
55053;SDS011;40954;45.668;18.980;2023-02-28T03:13:00;16.48;;;11.95;;
55053;SDS011;40954;45.668;18.980;2023-02-28T03:15:32;15.00;;;10.88;;
55053;SDS011;40954;45.668;18.980;2023-02-28T03:18:04;13.52;;;11.35;;
55053;SDS011;40954;45.668;18.980;2023-02-28T03:23:10;17.98;;;12.27;;
55053;SDS011;40954;45.668;18.980;2023-02-28T03:28:09;16.67;;;11.93;;
55053;SDS011;40954;45.668;18.980;2023-02-28T03:30:41;15.05;;;11.68;;
55053;SDS011;40954;45.668;18.980;2023-02-28T03:33:09;14.60;;;10.15;;
55053;SDS011;40954;45.668;18.980;2023-02-28T03:35:39;16.25;;;11.05;;
55053;SDS011;40954;45.668;18.980;2023-02-28T03:38:10;13.68;;;10.57;;
55053;SDS011;40954;45.668;18.980;2023-02-28T03:40:39;12.07;;;10.45;;
55053;SDS011;40954;45.668;18.980;2023-02-28T03:43:08;15.02;;;10.18;;
55053;SDS011;40954;45.668;18.980;2023-02-28T03:45:36;13.48;;;10.65;;
55053;SDS011;40954;45.668;18.980;2023-02-28T03:50:32;12.98;;;10.52;;
55053;SDS011;40954;45.668;18.980;2023-02-28T03:53:01;14.63;;;10.93;;
55053;SDS011;40954;45.668;18.980;2023-02-28T03:55:30;13.85;;;10.35;;
55053;SDS011;40954;45.668;18.980;2023-02-28T04:00:45;13.38;;;10.40;;
55053;SDS011;40954;45.668;18.980;2023-02-28T04:03:12;12.80;;;10.25;;
55053;SDS011;40954;45.668;18.980;2023-02-28T04:05:49;15.10;;;10.55;;
55053;SDS011;40954;45.668;18.980;2023-02-28T04:08:16;13.40;;;10.13;;
55053;SDS011;40954;45.668;18.980;2023-02-28T04:10:42;12.90;;;10.27;;
55053;SDS011;40954;45.668;18.980;2023-02-28T04:13:10;12.75;;;10.13;;
55053;SDS011;40954;45.668;18.980;2023-02-28T04:15:36;13.98;;;10.57;;
55053;SDS011;40954;45.668;18.980;2023-02-28T04:18:02;11.65;;;9.88;;
55053;SDS011;40954;45.668;18.980;2023-02-28T04:20:28;14.73;;;10.77;;
55053;SDS011;40954;45.668;18.980;2023-02-28T04:22:54;14.00;;;10.63;;
55053;SDS011;40954;45.668;18.980;2023-02-28T04:25:20;13.93;;;10.18;;
55053;SDS011;40954;45.668;18.980;2023-02-28T04:27:46;12.00;;;9.50;;
55053;SDS011;40954;45.668;18.980;2023-02-28T04:30:12;17.35;;;9.95;;
55053;SDS011;40954;45.668;18.980;2023-02-28T04:32:38;13.48;;;10.13;;
55053;SDS011;40954;45.668;18.980;2023-02-28T04:35:05;12.65;;;9.93;;
55053;SDS011;40954;45.668;18.980;2023-02-28T04:37:31;13.32;;;10.38;;
55053;SDS011;40954;45.668;18.980;2023-02-28T04:39:59;13.27;;;10.48;;
55053;SDS011;40954;45.668;18.980;2023-02-28T04:42:25;11.93;;;9.82;;
55053;SDS011;40954;45.668;18.980;2023-02-28T04:44:51;11.57;;;9.20;;
55053;SDS011;40954;45.668;18.980;2023-02-28T04:47:17;14.93;;;9.45;;
55053;SDS011;40954;45.668;18.980;2023-02-28T04:49:43;13.73;;;9.73;;
55053;SDS011;40954;45.668;18.980;2023-02-28T04:52:09;16.35;;;10.15;;
55053;SDS011;40954;45.668;18.980;2023-02-28T04:54:36;12.75;;;9.02;;
55053;SDS011;40954;45.668;18.980;2023-02-28T04:57:03;14.55;;;9.32;;
55053;SDS011;40954;45.668;18.980;2023-02-28T04:59:29;13.43;;;9.70;;
55053;SDS011;40954;45.668;18.980;2023-02-28T05:01:55;14.60;;;10.07;;
55053;SDS011;40954;45.668;18.980;2023-02-28T05:04:21;16.50;;;10.40;;
55053;SDS011;40954;45.668;18.980;2023-02-28T05:06:47;13.07;;;10.02;;
55053;SDS011;40954;45.668;18.980;2023-02-28T05:09:13;14.57;;;9.82;;
55053;SDS011;40954;45.668;18.980;2023-02-28T05:11:40;16.23;;;10.45;;
55053;SDS011;40954;45.668;18.980;2023-02-28T05:14:08;14.00;;;10.38;;
55053;SDS011;40954;45.668;18.980;2023-02-28T05:16:35;13.88;;;10.43;;
55053;SDS011;40954;45.668;18.980;2023-02-28T05:19:01;16.10;;;11.65;;
55053;SDS011;40954;45.668;18.980;2023-02-28T05:23:53;14.20;;;9.80;;
55053;SDS011;40954;45.668;18.980;2023-02-28T05:26:19;13.95;;;10.95;;
55053;SDS011;40954;45.668;18.980;2023-02-28T05:28:45;18.67;;;13.25;;
55053;SDS011;40954;45.668;18.980;2023-02-28T05:31:12;14.95;;;10.63;;
55053;SDS011;40954;45.668;18.980;2023-02-28T05:33:38;14.38;;;10.60;;
55053;SDS011;40954;45.668;18.980;2023-02-28T05:36:04;14.38;;;11.57;;
55053;SDS011;40954;45.668;18.980;2023-02-28T05:38:31;16.65;;;12.90;;
55053;SDS011;40954;45.668;18.980;2023-02-28T05:40:57;20.30;;;14.43;;
55053;SDS011;40954;45.668;18.980;2023-02-28T05:43:23;17.80;;;13.40;;
55053;SDS011;40954;45.668;18.980;2023-02-28T05:45:49;18.08;;;12.77;;
55053;SDS011;40954;45.668;18.980;2023-02-28T05:48:15;18.50;;;12.88;;
55053;SDS011;40954;45.668;18.980;2023-02-28T05:50:43;16.48;;;12.20;;
55053;SDS011;40954;45.668;18.980;2023-02-28T05:53:11;14.95;;;11.35;;
55053;SDS011;40954;45.668;18.980;2023-02-28T05:55:37;16.58;;;12.63;;
55053;SDS011;40954;45.668;18.980;2023-02-28T05:58:03;14.68;;;11.70;;
55053;SDS011;40954;45.668;18.980;2023-02-28T06:00:29;14.75;;;10.80;;
55053;SDS011;40954;45.668;18.980;2023-02-28T06:02:55;17.58;;;12.90;;
55053;SDS011;40954;45.668;18.980;2023-02-28T06:05:23;21.63;;;13.20;;
55053;SDS011;40954;45.668;18.980;2023-02-28T06:07:49;20.33;;;12.90;;
55053;SDS011;40954;45.668;18.980;2023-02-28T06:10:15;15.32;;;11.57;;
55053;SDS011;40954;45.668;18.980;2023-02-28T06:12:41;17.58;;;12.05;;
55053;SDS011;40954;45.668;18.980;2023-02-28T06:15:14;21.48;;;13.10;;
55053;SDS011;40954;45.668;18.980;2023-02-28T06:17:42;23.55;;;13.50;;
55053;SDS011;40954;45.668;18.980;2023-02-28T06:20:08;21.27;;;13.65;;
55053;SDS011;40954;45.668;18.980;2023-02-28T06:22:35;19.10;;;13.30;;
55053;SDS011;40954;45.668;18.980;2023-02-28T06:25:02;20.40;;;14.77;;
55053;SDS011;40954;45.668;18.980;2023-02-28T06:27:28;22.92;;;16.25;;
55053;SDS011;40954;45.668;18.980;2023-02-28T06:29:55;18.35;;;12.65;;
55053;SDS011;40954;45.668;18.980;2023-02-28T06:32:21;17.08;;;12.38;;
55053;SDS011;40954;45.668;18.980;2023-02-28T06:34:48;16.65;;;12.07;;
55053;SDS011;40954;45.668;18.980;2023-02-28T06:37:15;20.60;;;15.90;;
55053;SDS011;40954;45.668;18.980;2023-02-28T06:39:41;16.45;;;13.75;;
55053;SDS011;40954;45.668;18.980;2023-02-28T06:42:07;19.25;;;14.82;;
55053;SDS011;40954;45.668;18.980;2023-02-28T06:44:33;15.57;;;12.65;;
55053;SDS011;40954;45.668;18.980;2023-02-28T06:47:03;14.80;;;11.48;;
55053;SDS011;40954;45.668;18.980;2023-02-28T06:49:30;16.45;;;11.13;;
55053;SDS011;40954;45.668;18.980;2023-02-28T06:51:56;17.08;;;12.27;;
55053;SDS011;40954;45.668;18.980;2023-02-28T06:54:22;15.18;;;11.90;;
55053;SDS011;40954;45.668;18.980;2023-02-28T06:56:48;16.80;;;12.68;;
55053;SDS011;40954;45.668;18.980;2023-02-28T06:59:14;16.20;;;12.05;;
55053;SDS011;40954;45.668;18.980;2023-02-28T07:01:40;14.57;;;12.27;;
55053;SDS011;40954;45.668;18.980;2023-02-28T07:04:06;17.80;;;12.77;;
55053;SDS011;40954;45.668;18.980;2023-02-28T07:06:32;17.77;;;11.65;;
55053;SDS011;40954;45.668;18.980;2023-02-28T07:08:58;17.35;;;14.30;;
55053;SDS011;40954;45.668;18.980;2023-02-28T07:11:25;17.52;;;13.93;;
55053;SDS011;40954;45.668;18.980;2023-02-28T07:13:52;15.57;;;12.50;;
55053;SDS011;40954;45.668;18.980;2023-02-28T07:16:19;16.20;;;11.50;;
55053;SDS011;40954;45.668;18.980;2023-02-28T07:18:45;14.57;;;12.23;;
55053;SDS011;40954;45.668;18.980;2023-02-28T07:21:11;16.25;;;12.48;;
55053;SDS011;40954;45.668;18.980;2023-02-28T07:23:37;15.48;;;12.68;;
55053;SDS011;40954;45.668;18.980;2023-02-28T07:26:04;26.30;;;20.25;;
55053;SDS011;40954;45.668;18.980;2023-02-28T07:28:31;16.67;;;14.73;;
55053;SDS011;40954;45.668;18.980;2023-02-28T07:30:57;17.98;;;15.10;;
55053;SDS011;40954;45.668;18.980;2023-02-28T07:33:28;22.00;;;18.90;;
55053;SDS011;40954;45.668;18.980;2023-02-28T07:35:59;18.58;;;15.07;;
55053;SDS011;40954;45.668;18.980;2023-02-28T07:38:25;15.82;;;13.98;;
55053;SDS011;40954;45.668;18.980;2023-02-28T07:40:51;17.60;;;12.95;;
55053;SDS011;40954;45.668;18.980;2023-02-28T07:43:17;14.07;;;12.10;;
55053;SDS011;40954;45.668;18.980;2023-02-28T07:45:43;18.92;;;14.95;;
55053;SDS011;40954;45.668;18.980;2023-02-28T07:48:09;19.05;;;13.98;;
55053;SDS011;40954;45.668;18.980;2023-02-28T07:50:35;19.50;;;14.07;;
55053;SDS011;40954;45.668;18.980;2023-02-28T07:53:01;16.08;;;14.07;;
55053;SDS011;40954;45.668;18.980;2023-02-28T07:55:27;19.30;;;14.48;;
55053;SDS011;40954;45.668;18.980;2023-02-28T07:57:53;21.92;;;15.80;;
55053;SDS011;40954;45.668;18.980;2023-02-28T08:00:20;19.52;;;14.65;;
55053;SDS011;40954;45.668;18.980;2023-02-28T08:02:46;22.73;;;16.65;;
55053;SDS011;40954;45.668;18.980;2023-02-28T08:05:12;18.98;;;14.55;;
55053;SDS011;40954;45.668;18.980;2023-02-28T08:07:38;20.38;;;16.77;;
55053;SDS011;40954;45.668;18.980;2023-02-28T08:10:04;21.98;;;19.00;;
55053;SDS011;40954;45.668;18.980;2023-02-28T08:12:30;20.08;;;15.27;;
55053;SDS011;40954;45.668;18.980;2023-02-28T08:14:56;21.45;;;15.68;;
55053;SDS011;40954;45.668;18.980;2023-02-28T08:17:22;16.75;;;13.93;;
55053;SDS011;40954;45.668;18.980;2023-02-28T08:19:48;19.85;;;14.38;;
55053;SDS011;40954;45.668;18.980;2023-02-28T08:22:15;20.27;;;14.07;;
55053;SDS011;40954;45.668;18.980;2023-02-28T08:24:41;15.93;;;13.80;;
55053;SDS011;40954;45.668;18.980;2023-02-28T08:27:10;17.00;;;14.15;;
55053;SDS011;40954;45.668;18.980;2023-02-28T08:29:36;21.02;;;15.43;;
55053;SDS011;40954;45.668;18.980;2023-02-28T08:32:03;66.07;;;39.80;;
55053;SDS011;40954;45.668;18.980;2023-02-28T08:34:29;26.60;;;20.98;;
55053;SDS011;40954;45.668;18.980;2023-02-28T08:36:55;20.20;;;17.20;;
55053;SDS011;40954;45.668;18.980;2023-02-28T08:39:21;19.77;;;17.02;;
55053;SDS011;40954;45.668;18.980;2023-02-28T08:41:47;21.05;;;18.83;;
55053;SDS011;40954;45.668;18.980;2023-02-28T08:44:13;21.50;;;18.10;;
55053;SDS011;40954;45.668;18.980;2023-02-28T08:46:39;18.98;;;16.23;;
55053;SDS011;40954;45.668;18.980;2023-02-28T08:49:05;17.23;;;13.88;;
55053;SDS011;40954;45.668;18.980;2023-02-28T08:51:32;17.52;;;14.90;;
55053;SDS011;40954;45.668;18.980;2023-02-28T08:53:58;18.90;;;14.20;;
55053;SDS011;40954;45.668;18.980;2023-02-28T08:56:25;17.50;;;14.13;;
55053;SDS011;40954;45.668;18.980;2023-02-28T08:58:51;19.48;;;15.52;;
55053;SDS011;40954;45.668;18.980;2023-02-28T09:01:21;62.80;;;41.88;;
55053;SDS011;40954;45.668;18.980;2023-02-28T09:03:48;25.33;;;20.65;;
55053;SDS011;40954;45.668;18.980;2023-02-28T09:06:15;19.60;;;17.35;;
55053;SDS011;40954;45.668;18.980;2023-02-28T09:08:41;26.70;;;21.15;;
55053;SDS011;40954;45.668;18.980;2023-02-28T09:11:07;25.90;;;16.77;;
55053;SDS011;40954;45.668;18.980;2023-02-28T09:13:34;22.95;;;16.77;;
55053;SDS011;40954;45.668;18.980;2023-02-28T09:16:00;20.42;;;15.88;;
55053;SDS011;40954;45.668;18.980;2023-02-28T09:18:27;22.95;;;16.95;;
55053;SDS011;40954;45.668;18.980;2023-02-28T09:20:53;23.10;;;17.88;;
55053;SDS011;40954;45.668;18.980;2023-02-28T09:23:19;25.48;;;18.20;;
55053;SDS011;40954;45.668;18.980;2023-02-28T09:25:45;20.40;;;16.67;;
55053;SDS011;40954;45.668;18.980;2023-02-28T09:28:12;20.17;;;16.77;;
55053;SDS011;40954;45.668;18.980;2023-02-28T09:30:40;27.33;;;19.92;;
55053;SDS011;40954;45.668;18.980;2023-02-28T09:33:06;28.83;;;20.02;;
55053;SDS011;40954;45.668;18.980;2023-02-28T09:35:32;24.40;;;19.98;;
55053;SDS011;40954;45.668;18.980;2023-02-28T09:37:59;26.92;;;18.05;;
55053;SDS011;40954;45.668;18.980;2023-02-28T09:40:27;22.35;;;17.73;;
55053;SDS011;40954;45.668;18.980;2023-02-28T09:42:54;23.55;;;19.88;;
55053;SDS011;40954;45.668;18.980;2023-02-28T09:45:35;24.05;;;18.08;;
55053;SDS011;40954;45.668;18.980;2023-02-28T09:48:21;24.95;;;19.63;;
55053;SDS011;40954;45.668;18.980;2023-02-28T09:50:50;20.95;;;17.88;;
55053;SDS011;40954;45.668;18.980;2023-02-28T09:53:21;25.45;;;20.42;;
55053;SDS011;40954;45.668;18.980;2023-02-28T09:55:50;24.83;;;20.17;;
55053;SDS011;40954;45.668;18.980;2023-02-28T09:58:22;20.50;;;17.55;;
55053;SDS011;40954;45.668;18.980;2023-02-28T10:00:53;22.70;;;17.33;;
55053;SDS011;40954;45.668;18.980;2023-02-28T10:06:09;23.02;;;17.67;;
55053;SDS011;40954;45.668;18.980;2023-02-28T10:08:41;22.15;;;18.25;;
55053;SDS011;40954;45.668;18.980;2023-02-28T10:11:11;20.20;;;16.10;;
55053;SDS011;40954;45.668;18.980;2023-02-28T10:13:46;21.65;;;16.80;;
55053;SDS011;40954;45.668;18.980;2023-02-28T10:21:41;25.48;;;18.67;;
55053;SDS011;40954;45.668;18.980;2023-02-28T10:24:43;22.50;;;18.02;;
55053;SDS011;40954;45.668;18.980;2023-02-28T10:27:15;21.05;;;17.63;;
55053;SDS011;40954;45.668;18.980;2023-02-28T10:29:43;22.20;;;17.50;;
55053;SDS011;40954;45.668;18.980;2023-02-28T10:32:09;23.52;;;17.42;;
55053;SDS011;40954;45.668;18.980;2023-02-28T10:34:36;23.05;;;18.50;;
55053;SDS011;40954;45.668;18.980;2023-02-28T10:37:02;26.48;;;19.42;;
55053;SDS011;40954;45.668;18.980;2023-02-28T10:42:04;27.48;;;20.58;;
55053;SDS011;40954;45.668;18.980;2023-02-28T10:44:30;31.40;;;20.88;;
55053;SDS011;40954;45.668;18.980;2023-02-28T10:46:56;25.58;;;20.85;;
55053;SDS011;40954;45.668;18.980;2023-02-28T10:49:23;26.10;;;20.42;;
55053;SDS011;40954;45.668;18.980;2023-02-28T10:51:57;27.17;;;21.55;;
55053;SDS011;40954;45.668;18.980;2023-02-28T10:54:32;25.20;;;20.92;;
55053;SDS011;40954;45.668;18.980;2023-02-28T10:57:16;26.55;;;21.40;;
55053;SDS011;40954;45.668;18.980;2023-02-28T11:08:14;29.90;;;22.83;;
55053;SDS011;40954;45.668;18.980;2023-02-28T11:10:44;32.10;;;23.83;;
55053;SDS011;40954;45.668;18.980;2023-02-28T11:13:17;34.78;;;24.30;;
55053;SDS011;40954;45.668;18.980;2023-02-28T11:15:58;28.45;;;21.65;;
55053;SDS011;40954;45.668;18.980;2023-02-28T11:18:27;22.58;;;17.58;;
55053;SDS011;40954;45.668;18.980;2023-02-28T11:20:55;21.98;;;18.38;;
55053;SDS011;40954;45.668;18.980;2023-02-28T11:23:22;23.42;;;19.05;;
55053;SDS011;40954;45.668;18.980;2023-02-28T11:25:50;21.05;;;15.98;;
55053;SDS011;40954;45.668;18.980;2023-02-28T11:28:26;22.73;;;18.33;;
55053;SDS011;40954;45.668;18.980;2023-02-28T11:31:34;26.27;;;20.15;;
55053;SDS011;40954;45.668;18.980;2023-02-28T11:33:48;22.85;;;17.35;;
55053;SDS011;40954;45.668;18.980;2023-02-28T11:36:19;21.73;;;18.17;;
55053;SDS011;40954;45.668;18.980;2023-02-28T11:38:46;23.27;;;18.35;;
55053;SDS011;40954;45.668;18.980;2023-02-28T11:41:22;22.30;;;17.85;;
55053;SDS011;40954;45.668;18.980;2023-02-28T11:46:47;18.88;;;16.30;;
55053;SDS011;40954;45.668;18.980;2023-02-28T11:52:10;17.02;;;14.88;;
55053;SDS011;40954;45.668;18.980;2023-02-28T11:57:15;20.52;;;15.98;;
55053;SDS011;40954;45.668;18.980;2023-02-28T11:59:55;16.83;;;14.70;;
55053;SDS011;40954;45.668;18.980;2023-02-28T12:02:41;23.48;;;18.65;;
55053;SDS011;40954;45.668;18.980;2023-02-28T12:10:10;29.45;;;19.88;;
55053;SDS011;40954;45.668;18.980;2023-02-28T12:12:49;24.10;;;17.70;;
55053;SDS011;40954;45.668;18.980;2023-02-28T12:15:39;24.33;;;18.52;;
55053;SDS011;40954;45.668;18.980;2023-02-28T12:18:09;23.98;;;19.88;;
55053;SDS011;40954;45.668;18.980;2023-02-28T12:20:42;24.65;;;18.98;;
55053;SDS011;40954;45.668;18.980;2023-02-28T12:28:16;22.45;;;16.95;;
55053;SDS011;40954;45.668;18.980;2023-02-28T12:30:53;25.20;;;18.05;;
55053;SDS011;40954;45.668;18.980;2023-02-28T12:33:22;20.50;;;16.05;;
55053;SDS011;40954;45.668;18.980;2023-02-28T12:35:57;18.67;;;16.60;;
55053;SDS011;40954;45.668;18.980;2023-02-28T12:43:19;20.85;;;17.33;;
55053;SDS011;40954;45.668;18.980;2023-02-28T12:45:48;20.77;;;18.08;;
55053;SDS011;40954;45.668;18.980;2023-02-28T12:48:18;21.45;;;18.00;;
55053;SDS011;40954;45.668;18.980;2023-02-28T12:50:45;22.52;;;18.35;;
55053;SDS011;40954;45.668;18.980;2023-02-28T12:53:37;21.90;;;16.92;;
55053;SDS011;40954;45.668;18.980;2023-02-28T13:09:09;23.20;;;19.38;;
55053;SDS011;40954;45.668;18.980;2023-02-28T13:11:40;25.27;;;17.73;;
55053;SDS011;40954;45.668;18.980;2023-02-28T13:14:16;24.38;;;18.52;;
55053;SDS011;40954;45.668;18.980;2023-02-28T13:19:19;22.05;;;16.70;;
55053;SDS011;40954;45.668;18.980;2023-02-28T13:21:46;23.70;;;17.33;;
55053;SDS011;40954;45.668;18.980;2023-02-28T13:24:35;22.35;;;18.30;;
55053;SDS011;40954;45.668;18.980;2023-02-28T13:29:40;24.75;;;19.60;;
55053;SDS011;40954;45.668;18.980;2023-02-28T13:34:34;25.60;;;19.77;;
55053;SDS011;40954;45.668;18.980;2023-02-28T13:39:47;23.55;;;18.45;;
55053;SDS011;40954;45.668;18.980;2023-02-28T13:47:34;27.48;;;20.63;;
55053;SDS011;40954;45.668;18.980;2023-02-28T13:53:19;29.17;;;19.52;;
55053;SDS011;40954;45.668;18.980;2023-02-28T14:04:01;25.13;;;18.55;;
55053;SDS011;40954;45.668;18.980;2023-02-28T14:06:32;25.70;;;19.08;;
55053;SDS011;40954;45.668;18.980;2023-02-28T14:08:59;31.10;;;22.58;;
55053;SDS011;40954;45.668;18.980;2023-02-28T14:11:32;28.50;;;20.60;;
55053;SDS011;40954;45.668;18.980;2023-02-28T14:13:59;36.85;;;22.83;;
55053;SDS011;40954;45.668;18.980;2023-02-28T14:16:44;34.42;;;22.00;;
55053;SDS011;40954;45.668;18.980;2023-02-28T14:19:26;34.72;;;23.42;;
55053;SDS011;40954;45.668;18.980;2023-02-28T14:37:01;23.27;;;19.80;;
55053;SDS011;40954;45.668;18.980;2023-02-28T14:39:28;23.67;;;19.70;;
55053;SDS011;40954;45.668;18.980;2023-02-28T14:41:56;25.73;;;19.58;;
55053;SDS011;40954;45.668;18.980;2023-02-28T14:44:28;28.08;;;19.73;;
55053;SDS011;40954;45.668;18.980;2023-02-28T14:46:55;27.55;;;19.65;;
55053;SDS011;40954;45.668;18.980;2023-02-28T14:49:23;27.38;;;21.70;;
55053;SDS011;40954;45.668;18.980;2023-02-28T14:52:01;29.65;;;21.33;;
55053;SDS011;40954;45.668;18.980;2023-02-28T14:54:27;25.20;;;19.42;;
55053;SDS011;40954;45.668;18.980;2023-02-28T14:56:54;22.48;;;17.63;;
55053;SDS011;40954;45.668;18.980;2023-02-28T14:59:25;26.08;;;19.05;;
55053;SDS011;40954;45.668;18.980;2023-02-28T15:01:51;22.67;;;18.35;;
55053;SDS011;40954;45.668;18.980;2023-02-28T15:04:23;23.42;;;19.50;;
55053;SDS011;40954;45.668;18.980;2023-02-28T15:09:35;24.75;;;19.67;;
55053;SDS011;40954;45.668;18.980;2023-02-28T15:12:01;26.80;;;21.80;;
55053;SDS011;40954;45.668;18.980;2023-02-28T15:14:27;24.60;;;20.80;;
55053;SDS011;40954;45.668;18.980;2023-02-28T15:17:00;27.10;;;20.85;;
55053;SDS011;40954;45.668;18.980;2023-02-28T15:19:29;27.23;;;22.33;;
55053;SDS011;40954;45.668;18.980;2023-02-28T15:22:31;29.85;;;22.15;;
55053;SDS011;40954;45.668;18.980;2023-02-28T15:24:49;27.17;;;21.67;;
55053;SDS011;40954;45.668;18.980;2023-02-28T15:27:20;27.17;;;20.40;;
55053;SDS011;40954;45.668;18.980;2023-02-28T15:29:56;27.50;;;21.38;;
55053;SDS011;40954;45.668;18.980;2023-02-28T15:32:24;29.08;;;22.15;;
55053;SDS011;40954;45.668;18.980;2023-02-28T15:34:50;30.83;;;23.35;;
55053;SDS011;40954;45.668;18.980;2023-02-28T15:39:53;30.65;;;24.45;;
55053;SDS011;40954;45.668;18.980;2023-02-28T15:42:20;36.75;;;24.77;;
55053;SDS011;40954;45.668;18.980;2023-02-28T15:44:46;35.67;;;26.25;;
55053;SDS011;40954;45.668;18.980;2023-02-28T15:47:16;33.10;;;22.92;;
55053;SDS011;40954;45.668;18.980;2023-02-28T15:49:53;29.83;;;23.27;;
55053;SDS011;40954;45.668;18.980;2023-02-28T15:52:32;33.70;;;24.30;;
55053;SDS011;40954;45.668;18.980;2023-02-28T15:55:02;36.60;;;26.40;;
55053;SDS011;40954;45.668;18.980;2023-02-28T15:57:33;33.42;;;23.42;;
55053;SDS011;40954;45.668;18.980;2023-02-28T16:00:00;33.70;;;22.45;;
55053;SDS011;40954;45.668;18.980;2023-02-28T16:02:33;29.73;;;21.70;;
55053;SDS011;40954;45.668;18.980;2023-02-28T16:07:34;27.90;;;22.13;;
55053;SDS011;40954;45.668;18.980;2023-02-28T16:10:01;30.52;;;21.75;;
55053;SDS011;40954;45.668;18.980;2023-02-28T16:12:28;35.30;;;24.63;;
55053;SDS011;40954;45.668;18.980;2023-02-28T16:14:55;32.13;;;22.65;;
55053;SDS011;40954;45.668;18.980;2023-02-28T16:17:26;28.17;;;22.23;;
55053;SDS011;40954;45.668;18.980;2023-02-28T16:19:53;36.00;;;24.95;;
55053;SDS011;40954;45.668;18.980;2023-02-28T16:22:20;27.63;;;20.85;;
55053;SDS011;40954;45.668;18.980;2023-02-28T16:24:46;26.20;;;20.80;;
55053;SDS011;40954;45.668;18.980;2023-02-28T16:27:30;33.35;;;24.05;;
55053;SDS011;40954;45.668;18.980;2023-02-28T16:29:56;32.17;;;23.77;;
55053;SDS011;40954;45.668;18.980;2023-02-28T16:32:22;42.65;;;25.02;;
55053;SDS011;40954;45.668;18.980;2023-02-28T16:34:48;43.35;;;26.92;;